createdAt,value
2017-10-15T00:00:17.925Z,0.00
2017-10-15T00:01:17.875Z,0.00
2017-10-15T00:02:17.828Z,0.00
2017-10-15T00:03:17.792Z,0.00
2017-10-15T00:04:17.745Z,0.00
2017-10-15T00:05:17.706Z,0.00
2017-10-15T00:06:17.689Z,0.00
2017-10-15T00:07:17.641Z,0.00
2017-10-15T00:08:17.597Z,0.00
2017-10-15T00:09:17.549Z,0.00
2017-10-15T00:10:17.502Z,0.00
2017-10-15T00:11:17.502Z,0.00
2017-10-15T00:12:17.414Z,0.00
2017-10-15T00:13:17.390Z,0.00
2017-10-15T00:14:17.358Z,0.00
2017-10-15T00:15:17.312Z,0.00
2017-10-15T00:16:17.273Z,0.00
2017-10-15T00:17:17.221Z,0.00
2017-10-15T00:18:17.228Z,0.00
2017-10-15T00:19:17.135Z,0.00
2017-10-15T00:20:17.131Z,0.00
2017-10-15T00:21:17.052Z,0.00
2017-10-15T00:22:17.016Z,0.00
2017-10-15T00:23:17.026Z,0.00
2017-10-15T00:24:16.930Z,0.00
2017-10-15T00:25:16.920Z,0.00
2017-10-15T00:26:16.870Z,0.00
2017-10-15T00:27:16.798Z,0.00
2017-10-15T00:28:16.783Z,0.00
2017-10-15T00:29:16.729Z,0.00
2017-10-15T00:30:16.694Z,0.00
2017-10-15T00:31:16.688Z,0.00
2017-10-15T00:32:16.633Z,0.00
2017-10-15T00:33:16.577Z,0.00
2017-10-15T00:34:16.513Z,0.00
2017-10-15T00:35:16.488Z,0.00
2017-10-15T00:36:16.441Z,0.00
2017-10-15T00:37:16.405Z,0.00
2017-10-15T00:38:16.356Z,0.00
2017-10-15T00:39:16.340Z,0.00
2017-10-15T00:40:16.271Z,0.00
2017-10-15T00:41:16.233Z,0.00
2017-10-15T00:42:16.190Z,0.00
2017-10-15T00:43:16.150Z,0.00
2017-10-15T00:44:16.104Z,0.00
2017-10-15T00:45:16.071Z,0.00
2017-10-15T00:46:16.069Z,0.00
2017-10-15T00:47:15.983Z,0.00
2017-10-15T00:48:15.948Z,0.00
2017-10-15T00:49:15.903Z,0.00
2017-10-15T00:50:15.861Z,0.00
2017-10-15T00:51:15.835Z,0.00
2017-10-15T00:52:17.746Z,0.00
2017-10-15T00:53:15.759Z,0.00
2017-10-15T00:54:15.691Z,0.00
2017-10-15T00:55:15.655Z,0.00
2017-10-15T00:56:15.609Z,0.00
2017-10-15T00:57:15.569Z,0.00
2017-10-15T00:58:15.531Z,0.00
2017-10-15T00:59:15.484Z,0.00
2017-10-15T01:00:15.459Z,0.00
2017-10-15T01:01:15.403Z,0.00
2017-10-15T01:02:15.374Z,0.00
2017-10-15T01:03:15.343Z,0.00
2017-10-15T01:04:15.313Z,0.00
2017-10-15T01:05:15.249Z,0.00
2017-10-15T01:06:15.197Z,0.00
2017-10-15T01:07:15.162Z,0.00
2017-10-15T01:08:15.140Z,0.00
2017-10-15T01:09:15.105Z,0.00
2017-10-15T01:10:15.050Z,0.00
2017-10-15T01:11:15.023Z,0.00
2017-10-15T01:12:14.954Z,0.00
2017-10-15T01:13:14.915Z,0.00
2017-10-15T01:14:14.890Z,0.00
2017-10-15T01:15:14.830Z,0.00
2017-10-15T01:16:14.785Z,0.00
2017-10-15T01:17:14.781Z,0.00
2017-10-15T01:18:14.698Z,0.00
2017-10-15T01:19:14.659Z,0.00
2017-10-15T01:20:14.634Z,0.00
2017-10-15T01:21:14.584Z,0.00
2017-10-15T01:22:14.536Z,0.00
2017-10-15T01:23:14.499Z,0.00
2017-10-15T01:24:14.464Z,0.00
2017-10-15T01:25:14.422Z,0.00
2017-10-15T01:26:14.375Z,0.00
2017-10-15T01:27:14.390Z,0.00
2017-10-15T01:28:14.292Z,0.00
2017-10-15T01:29:14.253Z,0.00
2017-10-15T01:30:14.212Z,0.00
2017-10-15T01:31:14.173Z,0.00
2017-10-15T01:32:14.126Z,0.00
2017-10-15T01:33:14.098Z,0.00
2017-10-15T01:34:14.079Z,0.00
2017-10-15T01:35:14.006Z,0.00
2017-10-15T01:36:13.958Z,0.00
2017-10-15T01:37:13.932Z,0.00
2017-10-15T01:38:13.877Z,0.00
2017-10-15T01:39:13.845Z,0.00
2017-10-15T01:40:13.817Z,0.00
2017-10-15T01:41:13.751Z,0.00
2017-10-15T01:42:13.726Z,0.00
2017-10-15T01:43:13.685Z,0.00
2017-10-15T01:44:13.632Z,0.00
2017-10-15T01:45:13.583Z,0.00
2017-10-15T01:46:13.565Z,0.00
2017-10-15T01:47:13.507Z,0.00
2017-10-15T01:48:13.468Z,0.00
2017-10-15T01:49:13.430Z,0.00
2017-10-15T01:50:13.375Z,0.00
2017-10-15T01:51:13.341Z,0.00
2017-10-15T01:52:13.288Z,0.00
2017-10-15T01:53:13.318Z,0.00
2017-10-15T01:54:13.217Z,0.00
2017-10-15T01:55:13.163Z,0.00
2017-10-15T01:56:13.148Z,0.00
2017-10-15T01:57:13.114Z,0.00
2017-10-15T01:58:13.061Z,0.00
2017-10-15T01:59:13.021Z,0.00
2017-10-15T02:00:12.992Z,0.00
2017-10-15T02:01:12.955Z,0.00
2017-10-15T02:02:12.896Z,0.00
2017-10-15T02:03:12.853Z,0.00
2017-10-15T02:04:12.803Z,0.00
2017-10-15T02:05:12.750Z,0.00
2017-10-15T02:06:12.751Z,0.00
2017-10-15T02:07:12.687Z,0.00
2017-10-15T02:08:12.644Z,0.00
2017-10-15T02:09:12.628Z,0.00
2017-10-15T02:10:12.564Z,0.00
2017-10-15T02:11:12.594Z,0.00
2017-10-15T02:12:12.465Z,0.00
2017-10-15T02:13:12.451Z,0.00
2017-10-15T02:14:12.403Z,0.00
2017-10-15T02:15:12.367Z,0.00
2017-10-15T02:16:12.297Z,0.00
2017-10-15T02:17:12.295Z,0.00
2017-10-15T02:18:12.229Z,0.00
2017-10-15T02:19:12.174Z,0.00
2017-10-15T02:20:12.144Z,0.00
2017-10-15T02:21:12.150Z,0.00
2017-10-15T02:22:12.056Z,0.00
2017-10-15T02:23:12.003Z,0.00
2017-10-15T02:24:11.974Z,0.00
2017-10-15T02:25:11.930Z,0.00
2017-10-15T02:26:11.888Z,0.00
2017-10-15T02:27:11.843Z,0.00
2017-10-15T02:28:11.804Z,0.00
2017-10-15T02:29:11.774Z,0.00
2017-10-15T02:30:11.724Z,0.00
2017-10-15T02:31:11.681Z,0.00
2017-10-15T02:32:11.631Z,0.00
2017-10-15T02:33:11.603Z,0.00
2017-10-15T02:34:11.550Z,0.00
2017-10-15T02:35:11.510Z,0.00
2017-10-15T02:36:11.468Z,0.00
2017-10-15T02:37:11.432Z,0.00
2017-10-15T02:38:11.382Z,0.00
2017-10-15T02:39:11.343Z,0.00
2017-10-15T02:40:11.346Z,0.00
2017-10-15T02:41:11.285Z,0.00
2017-10-15T02:42:11.225Z,0.00
2017-10-15T02:43:11.208Z,0.00
2017-10-15T02:44:11.157Z,0.00
2017-10-15T02:45:11.103Z,0.00
2017-10-15T02:46:11.082Z,0.00
2017-10-15T02:47:11.040Z,0.00
2017-10-15T02:48:10.988Z,0.00
2017-10-15T02:49:10.927Z,0.00
2017-10-15T02:50:10.901Z,0.00
2017-10-15T02:51:10.862Z,0.00
2017-10-15T02:52:10.808Z,0.00
2017-10-15T02:53:10.874Z,0.00
2017-10-15T02:54:10.734Z,0.00
2017-10-15T02:55:10.702Z,0.00
2017-10-15T02:56:10.663Z,0.00
2017-10-15T02:57:10.623Z,0.00
2017-10-15T02:58:10.551Z,0.00
2017-10-15T02:59:10.534Z,0.00
2017-10-15T03:00:10.527Z,0.00
2017-10-15T03:01:10.461Z,0.00
2017-10-15T03:02:10.463Z,0.00
2017-10-15T03:03:10.403Z,0.00
2017-10-15T03:04:10.343Z,0.00
2017-10-15T03:05:10.323Z,0.00
2017-10-15T03:06:10.223Z,0.00
2017-10-15T03:07:10.184Z,0.00
2017-10-15T03:08:10.139Z,0.00
2017-10-15T03:09:10.102Z,0.00
2017-10-15T03:10:10.057Z,0.00
2017-10-15T03:11:10.012Z,0.00
2017-10-15T03:12:09.991Z,0.00
2017-10-15T03:13:09.948Z,0.00
2017-10-15T03:14:09.891Z,0.00
2017-10-15T03:15:09.847Z,0.00
2017-10-15T03:16:09.829Z,0.00
2017-10-15T03:17:09.762Z,0.00
2017-10-15T03:18:09.734Z,0.00
2017-10-15T03:19:09.701Z,0.00
2017-10-15T03:20:09.644Z,0.00
2017-10-15T03:21:09.608Z,0.00
2017-10-15T03:22:09.560Z,0.00
2017-10-15T03:23:09.519Z,0.00
2017-10-15T03:24:09.523Z,0.00
2017-10-15T03:25:09.451Z,0.00
2017-10-15T03:26:09.388Z,0.00
2017-10-15T03:27:09.348Z,0.00
2017-10-15T03:28:09.344Z,0.00
2017-10-15T03:29:09.262Z,0.00
2017-10-15T03:30:09.221Z,0.00
2017-10-15T03:31:09.175Z,0.00
2017-10-15T03:32:09.140Z,0.00
2017-10-15T03:33:09.096Z,0.00
2017-10-15T03:34:09.066Z,0.00
2017-10-15T03:35:09.026Z,0.00
2017-10-15T03:36:08.986Z,0.00
2017-10-15T03:37:08.934Z,0.00
2017-10-15T03:38:08.891Z,0.00
2017-10-15T03:39:08.885Z,0.00
2017-10-15T03:40:08.827Z,0.00
2017-10-15T03:41:08.764Z,0.00
2017-10-15T03:42:08.725Z,0.00
2017-10-15T03:43:08.680Z,0.00
2017-10-15T03:44:08.637Z,0.00
2017-10-15T03:45:08.597Z,0.00
2017-10-15T03:46:08.560Z,0.00
2017-10-15T03:47:08.518Z,0.00
2017-10-15T03:48:08.465Z,0.00
2017-10-15T03:49:08.499Z,0.00
2017-10-15T03:50:08.388Z,0.00
2017-10-15T03:51:08.348Z,0.00
2017-10-15T03:52:08.303Z,0.00
2017-10-15T03:53:08.263Z,0.00
2017-10-15T03:54:08.218Z,0.00
2017-10-15T03:55:08.175Z,0.00
2017-10-15T03:56:08.146Z,0.00
2017-10-15T03:57:08.104Z,0.00
2017-10-15T03:58:08.090Z,0.00
2017-10-15T03:59:08.016Z,0.00
2017-10-15T04:00:08.001Z,0.00
2017-10-15T04:01:07.934Z,0.00
2017-10-15T04:02:07.896Z,0.00
2017-10-15T04:03:07.847Z,0.00
2017-10-15T04:04:07.813Z,0.00
2017-10-15T04:05:07.762Z,0.00
2017-10-15T04:06:07.721Z,0.00
2017-10-15T04:07:07.679Z,0.00
2017-10-15T04:08:07.646Z,0.00
2017-10-15T04:09:07.596Z,0.00
2017-10-15T04:10:07.567Z,0.00
2017-10-15T04:11:07.509Z,0.00
2017-10-15T04:12:07.486Z,0.00
2017-10-15T04:13:07.451Z,0.00
2017-10-15T04:14:07.386Z,0.00
2017-10-15T04:15:07.357Z,0.00
2017-10-15T04:16:07.325Z,0.00
2017-10-15T04:17:07.315Z,0.00
2017-10-15T04:18:07.366Z,0.00
2017-10-15T04:19:07.242Z,0.00
2017-10-15T04:20:07.228Z,0.00
2017-10-15T04:21:07.102Z,0.00
2017-10-15T04:22:07.077Z,0.00
2017-10-15T04:23:07.035Z,0.00
2017-10-15T04:24:07.003Z,0.00
2017-10-15T04:25:06.964Z,0.00
2017-10-15T04:26:06.931Z,0.00
2017-10-15T04:27:06.858Z,0.00
2017-10-15T04:28:06.802Z,0.00
2017-10-15T04:29:06.764Z,0.00
2017-10-15T04:30:06.716Z,0.00
2017-10-15T04:31:06.680Z,0.00
2017-10-15T04:32:06.672Z,0.00
2017-10-15T04:33:06.653Z,0.00
2017-10-15T04:34:06.573Z,0.00
2017-10-15T04:35:06.514Z,0.00
2017-10-15T04:36:06.481Z,0.00
2017-10-15T04:37:06.469Z,0.00
2017-10-15T04:38:06.420Z,0.00
2017-10-15T04:39:06.369Z,0.00
2017-10-15T04:40:06.353Z,0.00
2017-10-15T04:41:06.285Z,0.00
2017-10-15T04:42:06.216Z,0.00
2017-10-15T04:43:06.209Z,0.00
2017-10-15T04:44:06.133Z,0.00
2017-10-15T04:45:06.089Z,0.00
2017-10-15T04:46:06.046Z,0.00
2017-10-15T04:47:06.037Z,0.00
2017-10-15T04:48:05.957Z,0.00
2017-10-15T04:49:05.916Z,0.00
2017-10-15T04:50:05.898Z,0.00
2017-10-15T04:51:05.827Z,0.00
2017-10-15T04:52:05.797Z,0.00
2017-10-15T04:53:05.760Z,0.00
2017-10-15T04:54:05.711Z,0.00
2017-10-15T04:55:05.683Z,0.00
2017-10-15T04:56:05.641Z,0.00
2017-10-15T04:57:05.606Z,0.00
2017-10-15T04:58:05.549Z,0.00
2017-10-15T04:59:05.510Z,0.00
2017-10-15T05:00:05.463Z,0.00
2017-10-15T05:01:05.522Z,0.00
2017-10-15T05:02:05.389Z,0.00
2017-10-15T05:03:05.353Z,0.00
2017-10-15T05:04:05.294Z,0.00
2017-10-15T05:05:05.256Z,0.00
2017-10-15T05:06:05.210Z,0.00
2017-10-15T05:07:05.179Z,0.00
2017-10-15T05:08:05.147Z,0.00
2017-10-15T05:09:05.088Z,0.00
2017-10-15T05:10:05.047Z,0.00
2017-10-15T05:11:05.024Z,0.00
2017-10-15T05:12:04.963Z,0.00
2017-10-15T05:13:04.915Z,0.00
2017-10-15T05:14:04.919Z,0.00
2017-10-15T05:15:04.867Z,0.00
2017-10-15T05:16:04.801Z,0.00
2017-10-15T05:17:04.776Z,0.00
2017-10-15T05:18:04.743Z,0.00
2017-10-15T05:19:04.718Z,0.00
2017-10-15T05:20:04.631Z,0.00
2017-10-15T05:21:04.586Z,0.00
2017-10-15T05:22:04.533Z,5.63
2017-10-15T05:23:04.524Z,5.63
2017-10-15T05:24:04.451Z,5.63
2017-10-15T05:25:04.450Z,5.63
2017-10-15T05:26:04.378Z,5.63
2017-10-15T05:27:04.327Z,11.25
2017-10-15T05:28:04.303Z,11.25
2017-10-15T05:29:04.281Z,11.25
2017-10-15T05:30:04.204Z,16.88
2017-10-15T05:31:04.169Z,16.88
2017-10-15T05:32:04.132Z,16.88
2017-10-15T05:33:04.076Z,22.50
2017-10-15T05:34:04.032Z,22.50
2017-10-15T05:35:03.995Z,28.13
2017-10-15T05:36:03.958Z,28.13
2017-10-15T05:37:03.919Z,33.75
2017-10-15T05:38:03.865Z,33.75
2017-10-15T05:39:03.845Z,39.38
2017-10-15T05:40:03.789Z,39.38
2017-10-15T05:41:03.804Z,45.00
2017-10-15T05:42:03.690Z,50.63
2017-10-15T05:43:03.662Z,56.25
2017-10-15T05:44:03.628Z,56.25
2017-10-15T05:45:03.603Z,61.88
2017-10-15T05:46:03.531Z,61.88
2017-10-15T05:47:03.485Z,67.50
2017-10-15T05:48:03.448Z,73.13
2017-10-15T05:49:03.403Z,78.75
2017-10-15T05:50:03.375Z,84.38
2017-10-15T05:51:03.316Z,90.00
2017-10-15T05:52:03.274Z,95.63
2017-10-15T05:53:03.231Z,101.25
2017-10-15T05:54:03.219Z,106.88
2017-10-15T05:55:03.145Z,118.13
2017-10-15T05:56:03.119Z,123.75
2017-10-15T05:57:03.066Z,129.38
2017-10-15T05:58:03.036Z,135.00
2017-10-15T05:59:02.974Z,140.63
2017-10-15T06:00:02.948Z,146.25
2017-10-15T06:01:02.903Z,151.88
2017-10-15T06:02:02.865Z,157.50
2017-10-15T06:03:02.830Z,163.13
2017-10-15T06:04:02.800Z,163.13
2017-10-15T06:05:02.751Z,168.75
2017-10-15T06:06:02.688Z,174.38
2017-10-15T06:07:02.653Z,185.63
2017-10-15T06:08:02.599Z,191.25
2017-10-15T06:09:02.557Z,191.25
2017-10-15T06:10:02.620Z,202.50
2017-10-15T06:11:02.482Z,208.13
2017-10-15T06:12:03.241Z,213.75
2017-10-15T06:13:02.388Z,225.00
2017-10-15T06:14:02.377Z,230.63
2017-10-15T06:15:02.312Z,236.25
2017-10-15T06:16:02.263Z,241.88
2017-10-15T06:17:02.234Z,247.50
2017-10-15T06:18:02.179Z,253.13
2017-10-15T06:19:02.210Z,264.38
2017-10-15T06:20:02.107Z,270.00
2017-10-15T06:21:02.085Z,264.38
2017-10-15T06:22:02.037Z,270.00
2017-10-15T06:23:01.983Z,275.63
2017-10-15T06:24:01.944Z,286.88
2017-10-15T06:25:01.914Z,286.88
2017-10-15T06:26:01.849Z,298.13
2017-10-15T06:27:01.797Z,303.75
2017-10-15T06:28:01.763Z,315.00
2017-10-15T06:29:01.718Z,326.25
2017-10-15T06:30:01.679Z,337.50
2017-10-15T06:31:01.655Z,348.75
2017-10-15T06:32:01.598Z,354.38
2017-10-15T06:33:01.562Z,354.38
2017-10-15T06:34:01.529Z,360.00
2017-10-15T06:35:01.473Z,365.63
2017-10-15T06:36:01.443Z,365.63
2017-10-15T06:37:01.462Z,365.63
2017-10-15T06:38:01.358Z,371.25
2017-10-15T06:39:01.312Z,371.25
2017-10-15T06:40:01.274Z,376.88
2017-10-15T06:41:01.257Z,371.25
2017-10-15T06:42:01.198Z,376.88
2017-10-15T06:43:01.153Z,382.50
2017-10-15T06:44:01.109Z,382.50
2017-10-15T06:45:01.070Z,382.50
2017-10-15T06:46:01.025Z,388.13
2017-10-15T06:47:01.015Z,399.38
2017-10-15T06:48:00.951Z,393.75
2017-10-15T06:49:00.915Z,399.38
2017-10-15T06:50:00.864Z,405.00
2017-10-15T06:51:00.869Z,416.25
2017-10-15T06:52:00.794Z,421.88
2017-10-15T06:53:00.744Z,489.38
2017-10-15T06:54:00.760Z,652.50
2017-10-15T06:55:00.682Z,838.13
2017-10-15T06:56:00.618Z,961.88
2017-10-15T06:57:00.583Z,984.38
2017-10-15T06:58:00.525Z,978.75
2017-10-15T06:59:00.487Z,1035.00
2017-10-15T07:00:00.462Z,1035.00
2017-10-15T07:01:00.421Z,990.00
2017-10-15T07:02:00.409Z,894.38
2017-10-15T07:03:00.325Z,866.25
2017-10-15T07:04:00.325Z,995.63
2017-10-15T07:05:00.278Z,922.50
2017-10-15T07:06:00.217Z,883.13
2017-10-15T07:07:00.184Z,995.63
2017-10-15T07:08:00.190Z,1119.38
2017-10-15T07:09:00.158Z,928.13
2017-10-15T07:10:00.086Z,697.50
2017-10-15T07:11:00.784Z,725.63
2017-10-15T07:12:00.119Z,838.13
2017-10-15T07:13:00.163Z,1074.38
2017-10-15T07:14:00.111Z,1147.50
2017-10-15T07:14:59.974Z,928.13
2017-10-15T07:15:59.915Z,1074.38
2017-10-15T07:17:00.939Z,1164.38
2017-10-15T07:18:00.375Z,798.75
2017-10-15T07:19:00.429Z,838.13
2017-10-15T07:20:00.421Z,984.38
2017-10-15T07:20:59.837Z,866.25
2017-10-15T07:21:59.790Z,714.38
2017-10-15T07:23:00.269Z,776.25
2017-10-15T07:23:59.902Z,787.50
2017-10-15T07:24:59.605Z,804.38
2017-10-15T07:25:59.908Z,888.75
2017-10-15T07:27:00.395Z,916.88
2017-10-15T07:27:59.571Z,765.00
2017-10-15T07:28:59.799Z,697.50
2017-10-15T07:29:59.523Z,703.13
2017-10-15T07:30:59.420Z,607.50
2017-10-15T07:31:59.302Z,579.38
2017-10-15T07:32:59.286Z,748.13
2017-10-15T07:33:59.236Z,1040.63
2017-10-15T07:34:59.206Z,1248.75
2017-10-15T07:35:59.753Z,877.50
2017-10-15T07:36:59.151Z,691.88
2017-10-15T07:37:59.126Z,776.25
2017-10-15T07:38:59.082Z,1040.63
2017-10-15T07:39:59.115Z,939.38
2017-10-15T07:40:59.084Z,691.88
2017-10-15T07:41:58.987Z,630.00
2017-10-15T07:42:58.955Z,635.63
2017-10-15T07:43:58.886Z,725.63
2017-10-15T07:44:58.865Z,922.50
2017-10-15T07:45:58.842Z,832.50
2017-10-15T07:46:58.779Z,686.25
2017-10-15T07:47:58.751Z,731.25
2017-10-15T07:48:58.736Z,832.50
2017-10-15T07:49:58.707Z,849.38
2017-10-15T07:50:58.650Z,1130.63
2017-10-15T07:51:58.654Z,1158.75
2017-10-15T07:52:58.600Z,894.38
2017-10-15T07:53:58.547Z,675.00
2017-10-15T07:54:58.526Z,658.13
2017-10-15T07:55:58.492Z,663.75
2017-10-15T07:56:58.457Z,742.50
2017-10-15T07:57:58.426Z,675.00
2017-10-15T07:58:58.399Z,635.63
2017-10-15T07:59:58.405Z,641.25
2017-10-15T08:00:58.318Z,669.38
2017-10-15T08:01:58.314Z,680.63
2017-10-15T08:02:58.291Z,630.00
2017-10-15T08:03:58.221Z,635.63
2017-10-15T08:04:58.244Z,652.50
2017-10-15T08:05:58.140Z,725.63
2017-10-15T08:06:58.109Z,905.63
2017-10-15T08:07:58.079Z,1395.00
2017-10-15T08:08:58.069Z,1935.00
2017-10-15T08:09:58.022Z,1968.75
2017-10-15T08:10:57.972Z,2013.75
2017-10-15T08:11:57.916Z,1755.00
2017-10-15T08:12:57.894Z,1271.25
2017-10-15T08:13:57.836Z,1282.50
2017-10-15T08:14:57.816Z,1350.00
2017-10-15T08:15:58.769Z,1406.25
2017-10-15T08:16:57.748Z,1136.25
2017-10-15T08:17:57.704Z,1113.75
2017-10-15T08:18:57.673Z,1226.25
2017-10-15T08:19:57.639Z,1434.38
2017-10-15T08:20:57.614Z,1243.13
2017-10-15T08:21:57.575Z,1136.25
2017-10-15T08:22:57.529Z,1456.88
2017-10-15T08:23:57.498Z,1237.50
2017-10-15T08:24:57.492Z,1338.75
2017-10-15T08:25:57.446Z,1783.13
2017-10-15T08:26:57.400Z,1378.13
2017-10-15T08:27:57.361Z,1395.00
2017-10-15T08:28:57.343Z,1462.50
2017-10-15T08:29:57.294Z,1023.75
2017-10-15T08:30:57.297Z,984.38
2017-10-15T08:31:57.217Z,1546.88
2017-10-15T08:32:57.250Z,1620.00
2017-10-15T08:33:57.174Z,1445.63
2017-10-15T08:34:57.138Z,1372.50
2017-10-15T08:35:57.106Z,1164.38
2017-10-15T08:36:57.072Z,2064.38
2017-10-15T08:37:57.050Z,1940.63
2017-10-15T08:38:57.042Z,1496.25
2017-10-15T08:39:57.002Z,1693.13
2017-10-15T08:40:56.968Z,1569.38
2017-10-15T08:41:56.929Z,1445.63
2017-10-15T08:42:56.891Z,1243.13
2017-10-15T08:43:56.875Z,1456.88
2017-10-15T08:44:56.886Z,1698.75
2017-10-15T08:45:56.810Z,1631.25
2017-10-15T08:46:56.777Z,1530.00
2017-10-15T08:47:56.749Z,1417.50
2017-10-15T08:48:56.706Z,1608.75
2017-10-15T08:49:56.688Z,1755.00
2017-10-15T08:50:56.648Z,1485.00
2017-10-15T08:51:56.632Z,1535.63
2017-10-15T08:52:56.612Z,1321.88
2017-10-15T08:53:56.573Z,1659.38
2017-10-15T08:54:56.574Z,2306.25
2017-10-15T08:55:56.493Z,2373.75
2017-10-15T08:56:56.480Z,2165.63
2017-10-15T08:57:56.468Z,2255.63
2017-10-15T08:58:56.449Z,2278.13
2017-10-15T08:59:56.444Z,2413.13
2017-10-15T09:00:56.388Z,2452.50
2017-10-15T09:01:56.361Z,2548.13
2017-10-15T09:02:56.304Z,2559.38
2017-10-15T09:03:56.338Z,2655.00
2017-10-15T09:04:56.273Z,2778.75
2017-10-15T09:05:56.222Z,2795.63
2017-10-15T09:06:56.228Z,2598.75
2017-10-15T09:07:56.188Z,2846.25
2017-10-15T09:08:56.148Z,3380.63
2017-10-15T09:09:56.130Z,3571.88
2017-10-15T09:10:56.099Z,3712.50
2017-10-15T09:11:56.057Z,3352.50
2017-10-15T09:12:56.041Z,3555.00
2017-10-15T09:13:56.204Z,3757.50
2017-10-15T09:14:55.980Z,3611.25
2017-10-15T09:15:55.971Z,3290.63
2017-10-15T09:16:55.971Z,3318.75
2017-10-15T09:17:56.006Z,3346.88
2017-10-15T09:18:55.884Z,3150.00
2017-10-15T09:19:55.867Z,3487.50
2017-10-15T09:20:55.838Z,3082.50
2017-10-15T09:21:55.850Z,3020.63
2017-10-15T09:22:55.821Z,2986.88
2017-10-15T09:23:55.766Z,3195.00
2017-10-15T09:24:55.764Z,2986.88
2017-10-15T09:25:56.328Z,2700.00
2017-10-15T09:26:55.719Z,2891.25
2017-10-15T09:27:55.701Z,2756.25
2017-10-15T09:28:55.681Z,2683.13
2017-10-15T09:29:55.657Z,3600.00
2017-10-15T09:30:55.631Z,3515.63
2017-10-15T09:31:55.612Z,3015.00
2017-10-15T09:32:55.589Z,3031.88
2017-10-15T09:33:55.573Z,3262.50
2017-10-15T09:34:55.541Z,3048.75
2017-10-15T09:35:55.528Z,3386.25
2017-10-15T09:36:55.511Z,3543.75
2017-10-15T09:37:55.502Z,3105.00
2017-10-15T09:38:55.461Z,3065.63
2017-10-15T09:39:55.454Z,2694.38
2017-10-15T09:40:55.439Z,2908.13
2017-10-15T09:41:55.411Z,3133.13
2017-10-15T09:42:55.388Z,3060.00
2017-10-15T09:43:55.379Z,3043.13
2017-10-15T09:44:55.348Z,3172.50
2017-10-15T09:45:55.347Z,3099.38
2017-10-15T09:46:55.310Z,2958.75
2017-10-15T09:47:55.303Z,3228.75
2017-10-15T09:48:55.286Z,3121.88
2017-10-15T09:49:55.255Z,2880.00
2017-10-15T09:50:55.239Z,2790.00
2017-10-15T09:51:55.229Z,3223.13
2017-10-15T09:52:55.197Z,3020.63
2017-10-15T09:53:55.174Z,3318.75
2017-10-15T09:54:55.160Z,3268.13
2017-10-15T09:55:55.150Z,3082.50
2017-10-15T09:56:55.139Z,3335.63
2017-10-15T09:57:55.104Z,3285.00
2017-10-15T09:58:55.074Z,2998.13
2017-10-15T09:59:55.070Z,3003.75
2017-10-15T10:00:55.045Z,2930.63
2017-10-15T10:01:55.038Z,3133.13
2017-10-15T10:02:55.019Z,3493.13
2017-10-15T10:03:55.046Z,3633.75
2017-10-15T10:04:54.993Z,3616.88
2017-10-15T10:05:55.802Z,3577.50
2017-10-15T10:06:54.952Z,3470.63
2017-10-15T10:07:54.938Z,3352.50
2017-10-15T10:08:54.928Z,3746.25
2017-10-15T10:09:54.908Z,3465.00
2017-10-15T10:10:54.877Z,3566.25
2017-10-15T10:11:54.867Z,3453.75
2017-10-15T10:12:55.005Z,2986.88
2017-10-15T10:13:55.809Z,3712.50
2017-10-15T10:14:54.814Z,3931.88
2017-10-15T10:15:55.312Z,3667.50
2017-10-15T10:16:55.330Z,3616.88
2017-10-15T10:17:54.822Z,3442.50
2017-10-15T10:18:54.757Z,3161.25
2017-10-15T10:19:54.700Z,3313.13
2017-10-15T10:20:54.739Z,3459.38
2017-10-15T10:21:54.673Z,3712.50
2017-10-15T10:22:54.650Z,3628.13
2017-10-15T10:23:54.635Z,3510.00
2017-10-15T10:24:54.631Z,3571.88
2017-10-15T10:25:54.622Z,3397.50
2017-10-15T10:26:54.598Z,3639.38
2017-10-15T10:27:54.589Z,3375.00
2017-10-15T10:28:54.557Z,3318.75
2017-10-15T10:29:54.540Z,3808.13
2017-10-15T10:30:54.526Z,3982.50
2017-10-15T10:31:54.504Z,4027.50
2017-10-15T10:32:54.542Z,3510.00
2017-10-15T10:33:54.484Z,3031.88
2017-10-15T10:34:54.427Z,3403.13
2017-10-15T10:35:54.409Z,3661.88
2017-10-15T10:36:54.412Z,3706.88
2017-10-15T10:37:54.388Z,3262.50
2017-10-15T10:38:54.375Z,3948.75
2017-10-15T10:39:54.384Z,3442.50
2017-10-15T10:40:54.328Z,3183.75
2017-10-15T10:41:54.832Z,3706.88
2017-10-15T10:42:54.335Z,3690.00
2017-10-15T10:43:54.290Z,3470.63
2017-10-15T10:44:54.265Z,3915.00
2017-10-15T10:45:54.234Z,3656.25
2017-10-15T10:46:54.239Z,3116.25
2017-10-15T10:47:54.224Z,3386.25
2017-10-15T10:48:54.185Z,3268.13
2017-10-15T10:49:54.199Z,3515.63
2017-10-15T10:50:54.153Z,3318.75
2017-10-15T10:51:54.163Z,3605.63
2017-10-15T10:52:54.126Z,3825.00
2017-10-15T10:53:54.109Z,3898.13
2017-10-15T10:54:54.090Z,3808.13
2017-10-15T10:55:54.083Z,3915.00
2017-10-15T10:56:54.056Z,3825.00
2017-10-15T10:57:54.035Z,3948.75
2017-10-15T10:58:54.016Z,3622.50
2017-10-15T10:59:54.001Z,3870.00
2017-10-15T11:00:53.980Z,3999.38
2017-10-15T11:01:53.971Z,4038.75
2017-10-15T11:02:53.948Z,3560.63
2017-10-15T11:03:53.940Z,3661.88
2017-10-15T11:04:53.908Z,4055.63
2017-10-15T11:05:53.890Z,3740.63
2017-10-15T11:06:53.891Z,3751.88
2017-10-15T11:07:53.871Z,3875.63
2017-10-15T11:08:53.854Z,3892.50
2017-10-15T11:09:53.818Z,3903.75
2017-10-15T11:10:53.829Z,3886.88
2017-10-15T11:11:53.794Z,3960.00
2017-10-15T11:12:53.776Z,3819.38
2017-10-15T11:13:53.776Z,3645.00
2017-10-15T11:14:53.754Z,3358.13
2017-10-15T11:15:53.754Z,3408.75
2017-10-15T11:16:53.720Z,4038.75
2017-10-15T11:17:53.666Z,3948.75
2017-10-15T11:18:53.665Z,3470.63
2017-10-15T11:19:53.650Z,3763.13
2017-10-15T11:20:53.637Z,3622.50
2017-10-15T11:21:53.624Z,3954.38
2017-10-15T11:22:53.607Z,4095.00
2017-10-15T11:23:53.588Z,3830.63
2017-10-15T11:24:53.575Z,3763.13
2017-10-15T11:25:53.556Z,3858.75
2017-10-15T11:26:53.524Z,3645.00
2017-10-15T11:27:53.501Z,3290.63
2017-10-15T11:28:53.486Z,3498.75
2017-10-15T11:29:53.478Z,3363.75
2017-10-15T11:30:53.474Z,3853.13
2017-10-15T11:31:53.461Z,3881.25
2017-10-15T11:32:53.415Z,3673.13
2017-10-15T11:33:53.398Z,3740.63
2017-10-15T11:34:53.370Z,3442.50
2017-10-15T11:35:53.367Z,3195.00
2017-10-15T11:36:53.338Z,3706.88
2017-10-15T11:37:53.319Z,3285.00
2017-10-15T11:38:53.343Z,3960.00
2017-10-15T11:39:53.307Z,4201.88
2017-10-15T11:40:53.289Z,4140.00
2017-10-15T11:41:53.263Z,3245.63
2017-10-15T11:42:53.254Z,3060.00
2017-10-15T11:43:53.244Z,3442.50
2017-10-15T11:44:53.227Z,4151.25
2017-10-15T11:45:53.192Z,3667.50
2017-10-15T11:46:53.178Z,3453.75
2017-10-15T11:47:53.156Z,3673.13
2017-10-15T11:48:53.142Z,3892.50
2017-10-15T11:49:53.097Z,4010.63
2017-10-15T11:50:53.102Z,3841.88
2017-10-15T11:51:53.075Z,3487.50
2017-10-15T11:52:53.053Z,3403.13
2017-10-15T11:53:53.040Z,3661.88
2017-10-15T11:54:53.021Z,3706.88
2017-10-15T11:55:53.020Z,3375.00
2017-10-15T11:56:53.031Z,3211.88
2017-10-15T11:57:52.967Z,3217.50
2017-10-15T11:58:52.955Z,3256.88
2017-10-15T11:59:52.953Z,3245.63
2017-10-15T12:00:52.932Z,3240.00
2017-10-15T12:01:52.903Z,3870.00
2017-10-15T12:02:52.893Z,3768.75
2017-10-15T12:03:52.887Z,3622.50
2017-10-15T12:04:52.838Z,3481.88
2017-10-15T12:05:52.809Z,3453.75
2017-10-15T12:06:52.792Z,3802.50
2017-10-15T12:07:52.775Z,3515.63
2017-10-15T12:08:52.771Z,3206.25
2017-10-15T12:09:52.736Z,3785.63
2017-10-15T12:10:52.750Z,3465.00
2017-10-15T12:11:52.711Z,3133.13
2017-10-15T12:12:52.695Z,3172.50
2017-10-15T12:13:52.668Z,3273.75
2017-10-15T12:14:52.644Z,3526.88
2017-10-15T12:15:52.650Z,3397.50
2017-10-15T12:16:52.624Z,2975.63
2017-10-15T12:17:52.601Z,3015.00
2017-10-15T12:18:52.718Z,3020.63
2017-10-15T12:19:52.546Z,3116.25
2017-10-15T12:20:52.539Z,3245.63
2017-10-15T12:21:52.510Z,3335.63
2017-10-15T12:22:52.501Z,3076.88
2017-10-15T12:23:52.474Z,3054.38
2017-10-15T12:24:52.465Z,3228.75
2017-10-15T12:25:52.443Z,3616.88
2017-10-15T12:26:52.404Z,3425.63
2017-10-15T12:27:52.418Z,3110.63
2017-10-15T12:28:58.660Z,3431.25
2017-10-15T12:29:52.394Z,3532.50
2017-10-15T12:30:52.338Z,3082.50
2017-10-15T12:31:52.317Z,3116.25
2017-10-15T12:32:52.314Z,2671.88
2017-10-15T12:33:52.279Z,2902.50
2017-10-15T12:34:52.279Z,2975.63
2017-10-15T12:35:52.279Z,2705.63
2017-10-15T12:36:52.218Z,3060.00
2017-10-15T12:37:52.185Z,3380.63
2017-10-15T12:38:52.185Z,3346.88
2017-10-15T12:39:52.165Z,3020.63